Time;durP1;ratioP1;P1;durP2;ratioP2;P2;SDS_P1;SDS_P2;PMS_P1;PMS_P2;Temp;Humidity;BMP_temperature;BMP_pressure;BME280_temperature;BME280_humidity;BME280_pressure;Samples;Min_cycle;Max_cycle;Signal;HPM_P1;HPM_P2
2023/07/16 00:02:06;;;;;;;3.90;2.50;;;;;;;;;;5055109;28;20465;-52
2023/07/16 00:04:32;;;;;;;3.00;2.37;;;;;;;;;;5054966;28;20790;-50
2023/07/16 00:07:01;;;;;;;5.90;2.40;;;;;;;;;;5054998;28;20431;-52
2023/07/16 00:09:27;;;;;;;2.30;2.07;;;;;;;;;;5054895;28;20758;-51
2023/07/16 00:11:53;;;;;;;6.03;2.33;;;;;;;;;;5054623;28;20438;-49
2023/07/16 00:14:18;;;;;;;2.47;2.27;;;;;;;;;;5054809;28;20782;-52
2023/07/16 00:16:44;;;;;;;2.47;2.27;;;;;;;;;;5054958;28;20471;-52
2023/07/16 00:19:12;;;;;;;2.67;2.27;;;;;;;;;;5054893;28;20921;-52
2023/07/16 00:21:38;;;;;;;3.00;2.80;;;;;;;;;;5054563;28;20474;-52
2023/07/16 00:24:04;;;;;;;3.73;2.27;;;;;;;;;;5054688;28;20532;-52
2023/07/16 00:26:30;;;;;;;3.23;2.20;;;;;;;;;;5054427;28;20916;-52
2023/07/16 00:28:56;;;;;;;2.50;2.23;;;;;;;;;;5054626;28;20428;-51
2023/07/16 00:31:22;;;;;;;2.87;2.67;;;;;;;;;;5054483;28;20885;-50
2023/07/16 00:33:48;;;;;;;4.17;2.17;;;;;;;;;;5054486;28;20470;-52
2023/07/16 00:36:14;;;;;;;2.17;2.00;;;;;;;;;;5054454;28;20378;-52
2023/07/16 00:38:41;;;;;;;5.10;2.30;;;;;;;;;;5054559;28;20435;-52
2023/07/16 00:41:07;;;;;;;4.67;2.47;;;;;;;;;;5054163;28;20805;-53
2023/07/16 00:43:33;;;;;;;3.20;2.70;;;;;;;;;;5054193;28;20566;-52
2023/07/16 00:45:58;;;;;;;5.83;2.10;;;;;;;;;;5054390;28;20416;-52
2023/07/16 00:48:25;;;;;;;3.77;2.17;;;;;;;;;;5054175;28;20437;-52
2023/07/16 00:50:52;;;;;;;2.67;2.47;;;;;;;;;;5054072;28;20419;-52
2023/07/16 00:53:18;;;;;;;5.37;2.33;;;;;;;;;;5054065;28;20415;-49
2023/07/16 00:55:44;;;;;;;5.00;2.83;;;;;;;;;;5053965;28;20430;-50
2023/07/16 00:58:10;;;;;;;2.37;2.17;;;;;;;;;;5054100;28;20902;-53
2023/07/16 01:00:37;;;;;;;4.50;2.33;;;;;;;;;;5053446;28;20905;-52
2023/07/16 01:03:03;;;;;;;2.30;2.10;;;;;;;;;;5053475;28;20383;-51
2023/07/16 01:05:35;;;;;;;3.13;2.67;;;;;;;;;;5053451;28;20505;-51
2023/07/16 01:08:04;;;;;;;2.70;2.40;;;;;;;;;;5052430;28;20840;-52
2023/07/16 01:10:30;;;;;;;5.93;2.20;;;;;;;;;;5053688;28;20481;-52
2023/07/16 01:12:56;;;;;;;2.57;2.37;;;;;;;;;;5053446;28;20462;-51
2023/07/16 01:15:22;;;;;;;3.20;2.33;;;;;;;;;;5053713;28;20496;-51
2023/07/16 01:17:48;;;;;;;3.23;2.40;;;;;;;;;;5053732;28;20418;-51
2023/07/16 01:20:14;;;;;;;4.03;2.30;;;;;;;;;;5053068;28;20388;-50
2023/07/16 01:22:43;;;;;;;2.60;2.40;;;;;;;;;;5053247;28;20420;-50
2023/07/16 01:25:25;;;;;;;3.37;2.33;;;;;;;;;;5053772;28;20440;-52
2023/07/16 01:28:03;;;;;;;7.30;2.60;;;;;;;;;;5047403;28;20808;-51
2023/07/16 01:30:29;;;;;;;2.80;2.30;;;;;;;;;;5053252;28;20400;-51
2023/07/16 01:32:56;;;;;;;3.30;2.60;;;;;;;;;;5053541;28;20453;-49
2023/07/16 01:35:22;;;;;;;4.70;2.73;;;;;;;;;;5053274;28;20418;-52
2023/07/16 01:37:48;;;;;;;1.93;1.83;;;;;;;;;;5053321;28;20407;-52
2023/07/16 01:40:14;;;;;;;2.13;2.03;;;;;;;;;;5053093;28;20484;-52
2023/07/16 01:42:40;;;;;;;6.50;2.40;;;;;;;;;;5053329;28;20825;-51
2023/07/16 01:45:07;;;;;;;4.93;2.10;;;;;;;;;;5053188;28;20470;-50
2023/07/16 01:47:51;;;;;;;4.63;2.77;;;;;;;;;;5053153;28;20424;-52
2023/07/16 01:50:17;;;;;;;2.30;2.10;;;;;;;;;;5053260;28;20415;-50
2023/07/16 01:52:43;;;;;;;4.33;2.80;;;;;;;;;;5053000;28;20409;-50
2023/07/16 01:55:09;;;;;;;2.17;1.97;;;;;;;;;;5053036;28;20386;-50
2023/07/16 01:57:35;;;;;;;8.73;2.63;;;;;;;;;;5052902;28;20851;-52
2023/07/16 02:00:02;;;;;;;5.70;2.37;;;;;;;;;;5052814;28;20800;-53
2023/07/16 02:02:28;;;;;;;7.83;2.43;;;;;;;;;;5051634;28;20396;-50
2023/07/16 02:04:54;;;;;;;2.80;2.20;;;;;;;;;;5052812;28;20767;-51
2023/07/16 02:07:20;;;;;;;3.47;2.60;;;;;;;;;;5052670;28;20429;-52
2023/07/16 02:09:46;;;;;;;2.40;2.20;;;;;;;;;;5052463;28;20434;-52
2023/07/16 02:12:11;;;;;;;2.27;2.17;;;;;;;;;;5052873;28;20421;-53
2023/07/16 02:14:37;;;;;;;4.13;2.47;;;;;;;;;;5052615;28;20464;-50
2023/07/16 02:17:03;;;;;;;2.23;2.03;;;;;;;;;;5052628;28;20413;-51
2023/07/16 02:19:29;;;;;;;2.70;2.50;;;;;;;;;;5052478;28;20845;-51
2023/07/16 02:21:55;;;;;;;2.43;2.00;;;;;;;;;;5052295;28;20381;-50
2023/07/16 02:24:21;;;;;;;2.93;2.73;;;;;;;;;;5051489;28;20626;-51
2023/07/16 02:26:47;;;;;;;4.50;2.40;;;;;;;;;;5052509;28;20379;-52
2023/07/16 02:29:13;;;;;;;2.47;2.23;;;;;;;;;;5052292;28;20484;-51
2023/07/16 02:31:39;;;;;;;3.17;2.40;;;;;;;;;;5052189;28;20458;-53
2023/07/16 02:34:05;;;;;;;3.70;2.40;;;;;;;;;;5052430;28;20449;-50
2023/07/16 02:36:31;;;;;;;2.03;1.93;;;;;;;;;;5052280;28;20490;-52
2023/07/16 02:38:57;;;;;;;4.40;2.70;;;;;;;;;;5052198;28;20452;-50
2023/07/16 02:41:23;;;;;;;2.90;2.60;;;;;;;;;;5051879;28;20431;-52
2023/07/16 02:43:59;;;;;;;2.80;2.57;;;;;;;;;;5052007;28;20441;-49
2023/07/16 02:46:25;;;;;;;4.87;2.40;;;;;;;;;;5052097;28;20388;-51
2023/07/16 02:48:51;;;;;;;3.63;2.30;;;;;;;;;;5052022;28;20431;-52
2023/07/16 02:51:17;;;;;;;3.30;2.40;;;;;;;;;;5051944;28;20411;-51
2023/07/16 02:53:43;;;;;;;3.90;3.00;;;;;;;;;;5051978;28;20393;-52
2023/07/16 02:56:08;;;;;;;3.97;2.20;;;;;;;;;;5051959;28;20384;-50
2023/07/16 02:58:34;;;;;;;4.77;2.63;;;;;;;;;;5051754;28;20425;-52
2023/07/16 03:01:00;;;;;;;3.63;2.50;;;;;;;;;;5051770;28;20443;-52
2023/07/16 03:03:26;;;;;;;9.93;2.80;;;;;;;;;;5051640;28;20438;-53
2023/07/16 03:05:52;;;;;;;3.33;2.20;;;;;;;;;;5051797;28;20417;-51
2023/07/16 03:08:19;;;;;;;4.30;2.60;;;;;;;;;;5051702;28;20429;-52
2023/07/16 03:10:45;;;;;;;3.03;2.50;;;;;;;;;;5051526;28;20385;-51
2023/07/16 03:13:11;;;;;;;2.57;2.37;;;;;;;;;;5051572;28;20423;-52
2023/07/16 03:15:37;;;;;;;3.00;2.30;;;;;;;;;;5051655;28;20379;-52
2023/07/16 03:18:03;;;;;;;3.77;2.70;;;;;;;;;;5051733;28;20402;-50
2023/07/16 03:20:29;;;;;;;10.60;2.50;;;;;;;;;;5051222;28;20974;-50
2023/07/16 03:22:55;;;;;;;4.33;2.23;;;;;;;;;;5051373;28;20386;-49
2023/07/16 03:25:21;;;;;;;5.53;2.63;;;;;;;;;;5051397;28;20855;-52
2023/07/16 03:27:47;;;;;;;3.70;2.50;;;;;;;;;;5051652;28;20442;-52
2023/07/16 03:30:12;;;;;;;7.60;2.47;;;;;;;;;;5051211;28;20415;-49
2023/07/16 03:32:38;;;;;;;2.57;2.37;;;;;;;;;;5051485;28;20375;-52
2023/07/16 03:35:05;;;;;;;2.53;2.33;;;;;;;;;;5051431;28;20416;-52
2023/07/16 03:37:31;;;;;;;4.50;2.40;;;;;;;;;;5051273;28;20417;-50
2023/07/16 03:39:57;;;;;;;3.80;2.27;;;;;;;;;;5051070;28;20432;-52
2023/07/16 03:42:22;;;;;;;4.33;2.10;;;;;;;;;;5051183;28;20470;-50
2023/07/16 03:44:48;;;;;;;2.90;2.00;;;;;;;;;;5051284;28;20437;-52
2023/07/16 03:47:15;;;;;;;7.60;3.10;;;;;;;;;;5051657;28;20489;-52
2023/07/16 03:49:41;;;;;;;9.23;2.50;;;;;;;;;;5050941;28;20826;-50
2023/07/16 03:52:07;;;;;;;3.50;2.50;;;;;;;;;;5051219;28;20423;-52
2023/07/16 03:54:32;;;;;;;2.30;2.10;;;;;;;;;;5051363;28;20441;-51
2023/07/16 03:56:58;;;;;;;3.67;2.13;;;;;;;;;;5051109;28;20429;-52
2023/07/16 03:59:24;;;;;;;5.03;2.30;;;;;;;;;;5051051;28;20445;-51
2023/07/16 04:01:50;;;;;;;3.17;2.20;;;;;;;;;;5050971;28;20388;-52
2023/07/16 04:04:16;;;;;;;3.60;2.30;;;;;;;;;;5050954;28;20438;-50
2023/07/16 04:06:42;;;;;;;5.63;2.80;;;;;;;;;;5050841;28;20468;-52
2023/07/16 04:09:08;;;;;;;4.03;2.57;;;;;;;;;;5051228;28;20396;-52
2023/07/16 04:11:34;;;;;;;3.30;2.03;;;;;;;;;;5050952;28;20431;-52
2023/07/16 04:14:00;;;;;;;4.73;2.63;;;;;;;;;;5051020;28;20518;-52
2023/07/16 04:16:26;;;;;;;4.30;2.73;;;;;;;;;;5051052;28;20878;-52
2023/07/16 04:18:52;;;;;;;3.73;2.50;;;;;;;;;;5050737;28;20829;-49
2023/07/16 04:21:18;;;;;;;4.97;2.40;;;;;;;;;;5050647;28;20887;-50
2023/07/16 04:23:44;;;;;;;7.40;2.80;;;;;;;;;;5050912;28;21027;-51
2023/07/16 04:26:10;;;;;;;11.90;3.00;;;;;;;;;;5051152;28;20945;-52
2023/07/16 04:28:35;;;;;;;4.57;2.30;;;;;;;;;;5050909;28;20762;-51
2023/07/16 04:31:01;;;;;;;7.83;2.40;;;;;;;;;;5050760;28;20483;-52
2023/07/16 04:33:27;;;;;;;6.10;2.60;;;;;;;;;;5050747;28;20413;-51
2023/07/16 04:35:53;;;;;;;2.50;2.30;;;;;;;;;;5050810;28;20461;-52
2023/07/16 04:38:19;;;;;;;5.03;2.90;;;;;;;;;;5051071;28;20778;-50
2023/07/16 04:40:45;;;;;;;8.43;2.93;;;;;;;;;;5050703;28;20886;-49
2023/07/16 04:43:11;;;;;;;5.47;3.10;;;;;;;;;;5050697;28;20411;-52
2023/07/16 04:45:39;;;;;;;4.23;2.63;;;;;;;;;;5053516;28;20405;-52
2023/07/16 04:48:06;;;;;;;6.70;2.77;;;;;;;;;;5053700;28;20435;-49
2023/07/16 04:50:31;;;;;;;8.67;3.23;;;;;;;;;;5053400;28;20408;-52
2023/07/16 04:52:57;;;;;;;3.20;2.70;;;;;;;;;;5054488;28;20377;-52
2023/07/16 04:55:24;;;;;;;8.33;3.00;;;;;;;;;;5054116;28;20388;-51
2023/07/16 04:57:53;;;;;;;8.33;3.53;;;;;;;;;;5054241;28;20406;-52
2023/07/16 05:00:19;;;;;;;2.70;2.30;;;;;;;;;;5053883;28;20416;-52
2023/07/16 05:02:45;;;;;;;3.20;2.50;;;;;;;;;;5053940;28;20424;-51
2023/07/16 05:05:11;;;;;;;3.30;2.50;;;;;;;;;;5053889;28;20464;-51
2023/07/16 05:07:37;;;;;;;3.77;2.60;;;;;;;;;;5053813;28;20424;-51
2023/07/16 05:10:03;;;;;;;8.53;3.20;;;;;;;;;;5053750;28;20493;-51
2023/07/16 05:12:29;;;;;;;5.43;2.87;;;;;;;;;;5053873;28;20413;-50
2023/07/16 05:14:54;;;;;;;6.03;3.50;;;;;;;;;;5053787;28;20503;-51
2023/07/16 05:17:20;;;;;;;4.13;2.97;;;;;;;;;;5053608;28;20388;-50
2023/07/16 05:19:46;;;;;;;7.37;3.20;;;;;;;;;;5053389;28;20418;-53
2023/07/16 05:22:12;;;;;;;8.13;2.90;;;;;;;;;;5053656;28;20412;-50
2023/07/16 05:24:38;;;;;;;3.37;2.90;;;;;;;;;;5053533;28;20462;-52
2023/07/16 05:27:05;;;;;;;6.83;3.53;;;;;;;;;;5053850;28;20397;-51
2023/07/16 05:29:30;;;;;;;4.80;3.10;;;;;;;;;;5053492;28;20943;-52
2023/07/16 05:31:56;;;;;;;4.17;2.70;;;;;;;;;;5053194;28;20420;-51
2023/07/16 05:34:22;;;;;;;7.10;3.10;;;;;;;;;;5053284;28;20449;-51
2023/07/16 05:36:48;;;;;;;3.77;2.80;;;;;;;;;;5053413;28;20388;-50
2023/07/16 05:39:14;;;;;;;9.00;3.40;;;;;;;;;;5053298;28;20440;-50
2023/07/16 05:41:41;;;;;;;6.33;2.73;;;;;;;;;;5053084;28;20393;-52
2023/07/16 05:44:08;;;;;;;6.53;2.97;;;;;;;;;;5053228;28;20428;-50
2023/07/16 05:46:34;;;;;;;4.67;2.90;;;;;;;;;;5055536;28;20380;-52
2023/07/16 05:49:00;;;;;;;4.93;3.00;;;;;;;;;;5053157;28;20814;-51
2023/07/16 05:51:26;;;;;;;5.83;3.10;;;;;;;;;;5052917;28;20406;-49
2023/07/16 05:53:52;;;;;;;8.70;3.60;;;;;;;;;;5053090;28;20406;-52
2023/07/16 05:56:18;;;;;;;7.80;3.97;;;;;;;;;;5053042;28;20388;-51
2023/07/16 05:58:44;;;;;;;3.60;3.30;;;;;;;;;;5051813;28;20408;-52
2023/07/16 06:01:10;;;;;;;5.40;2.93;;;;;;;;;;5053163;28;20372;-52
2023/07/16 06:03:36;;;;;;;4.73;3.60;;;;;;;;;;5052808;28;20963;-52
2023/07/16 06:06:02;;;;;;;5.17;3.30;;;;;;;;;;5050702;28;20795;-52
2023/07/16 06:08:28;;;;;;;8.10;3.30;;;;;;;;;;5052522;28;20444;-51
2023/07/16 06:10:54;;;;;;;6.23;3.87;;;;;;;;;;5052552;28;20959;-52
2023/07/16 06:13:20;;;;;;;4.43;3.40;;;;;;;;;;5052678;28;20397;-52
2023/07/16 06:15:47;;;;;;;4.77;3.40;;;;;;;;;;5052407;28;20388;-50
2023/07/16 06:18:13;;;;;;;4.90;3.77;;;;;;;;;;5052213;28;20433;-50
2023/07/16 06:20:39;;;;;;;4.60;3.57;;;;;;;;;;5052384;28;20441;-52
2023/07/16 06:23:05;;;;;;;5.20;3.60;;;;;;;;;;5052392;28;20381;-52
2023/07/16 06:25:30;;;;;;;5.30;3.67;;;;;;;;;;5052318;28;20423;-52
2023/07/16 06:27:56;;;;;;;6.17;3.83;;;;;;;;;;5052494;28;20857;-50
2023/07/16 06:30:22;;;;;;;10.73;3.07;;;;;;;;;;5052079;28;20959;-52
2023/07/16 06:32:48;;;;;;;10.50;3.97;;;;;;;;;;5051739;28;20376;-47
2023/07/16 06:35:14;;;;;;;8.80;4.33;;;;;;;;;;5056184;28;20416;-52
2023/07/16 06:37:40;;;;;;;7.77;5.07;;;;;;;;;;5052454;28;20414;-52
2023/07/16 06:40:07;;;;;;;6.43;4.07;;;;;;;;;;5052070;28;20386;-53
2023/07/16 06:42:33;;;;;;;9.50;4.50;;;;;;;;;;5052008;28;20796;-51
2023/07/16 06:44:58;;;;;;;6.80;4.20;;;;;;;;;;5051942;28;20459;-52
2023/07/16 06:47:24;;;;;;;6.23;4.70;;;;;;;;;;5050223;28;20402;-51
2023/07/16 06:49:50;;;;;;;6.57;4.30;;;;;;;;;;5051976;28;20436;-50
2023/07/16 06:52:27;;;;;;;7.03;5.13;;;;;;;;;;5051527;28;20410;-52
2023/07/16 06:54:53;;;;;;;8.73;3.93;;;;;;;;;;5050719;28;20393;-52
2023/07/16 06:57:18;;;;;;;6.37;4.67;;;;;;;;;;5051861;28;20949;-52
2023/07/16 06:59:45;;;;;;;6.20;5.00;;;;;;;;;;5051533;28;20789;-51
2023/07/16 07:02:12;;;;;;;8.90;4.40;;;;;;;;;;5057439;28;20461;-52
2023/07/16 07:04:37;;;;;;;8.50;4.73;;;;;;;;;;5043509;28;20873;-52
2023/07/16 07:07:04;;;;;;;6.63;4.53;;;;;;;;;;5051537;28;20419;-52
2023/07/16 07:09:29;;;;;;;7.43;5.00;;;;;;;;;;5051188;28;20434;-52
2023/07/16 07:11:56;;;;;;;8.23;5.13;;;;;;;;;;5051418;28;20439;-52
2023/07/16 07:14:21;;;;;;;11.33;7.17;;;;;;;;;;5051551;28;20411;-52
2023/07/16 07:16:47;;;;;;;11.40;4.90;;;;;;;;;;5051611;28;20419;-51
2023/07/16 07:19:13;;;;;;;6.43;4.73;;;;;;;;;;5051640;28;20801;-51
2023/07/16 07:21:39;;;;;;;6.47;4.53;;;;;;;;;;5051305;28;20407;-51
2023/07/16 07:24:05;;;;;;;8.30;4.77;;;;;;;;;;5051470;28;20453;-52
2023/07/16 07:26:31;;;;;;;8.20;5.77;;;;;;;;;;5051294;28;20512;-52
2023/07/16 07:28:57;;;;;;;7.57;4.37;;;;;;;;;;5051451;28;20403;-53
2023/07/16 07:31:23;;;;;;;9.53;4.77;;;;;;;;;;5051120;28;20443;-52
2023/07/16 07:33:49;;;;;;;5.87;4.00;;;;;;;;;;5051470;28;20438;-52
2023/07/16 07:36:15;;;;;;;7.83;4.83;;;;;;;;;;5051373;28;20477;-52
2023/07/16 07:38:41;;;;;;;9.53;5.97;;;;;;;;;;5051294;28;20435;-50
2023/07/16 07:41:07;;;;;;;10.00;4.10;;;;;;;;;;5051052;28;20405;-50
2023/07/16 07:43:33;;;;;;;9.60;5.20;;;;;;;;;;5051451;28;20442;-52
2023/07/16 07:45:59;;;;;;;7.27;4.57;;;;;;;;;;5051522;28;20397;-53
2023/07/16 07:48:25;;;;;;;6.00;4.23;;;;;;;;;;5051238;28;20978;-52
2023/07/16 07:50:51;;;;;;;10.53;5.10;;;;;;;;;;5051357;28;20421;-51
2023/07/16 07:53:20;;;;;;;6.70;4.80;;;;;;;;;;5051445;28;20427;-52
2023/07/16 07:55:46;;;;;;;9.03;5.67;;;;;;;;;;5051097;28;20554;-52
2023/07/16 07:58:12;;;;;;;7.43;5.23;;;;;;;;;;5051126;28;20429;-52
2023/07/16 08:00:39;;;;;;;7.23;4.87;;;;;;;;;;5042908;28;20384;-53
2023/07/16 08:03:05;;;;;;;18.00;6.20;;;;;;;;;;5046734;28;20397;-49
2023/07/16 08:05:31;;;;;;;7.23;5.37;;;;;;;;;;5051002;28;21156;-53
2023/07/16 08:07:57;;;;;;;7.27;5.60;;;;;;;;;;5051084;28;20447;-52
2023/07/16 08:10:23;;;;;;;6.27;4.63;;;;;;;;;;5050765;28;20418;-52
2023/07/16 08:12:49;;;;;;;8.97;4.53;;;;;;;;;;5051151;28;20423;-52
2023/07/16 08:15:15;;;;;;;9.10;5.67;;;;;;;;;;5050829;28;20892;-52
2023/07/16 08:17:43;;;;;;;8.60;4.80;;;;;;;;;;5050992;28;20495;-50
2023/07/16 08:20:09;;;;;;;8.70;5.03;;;;;;;;;;5050898;28;20480;-52
2023/07/16 08:22:35;;;;;;;9.90;5.13;;;;;;;;;;5053264;28;20794;-51
2023/07/16 08:25:03;;;;;;;5.87;4.50;;;;;;;;;;5054466;28;20464;-52
2023/07/16 08:27:29;;;;;;;4.87;4.07;;;;;;;;;;5054728;28;20409;-52
2023/07/16 08:29:55;;;;;;;6.80;3.80;;;;;;;;;;5054481;28;20830;-51
2023/07/16 08:32:21;;;;;;;9.87;4.80;;;;;;;;;;5054585;28;20811;-52
2023/07/16 08:34:47;;;;;;;9.70;4.03;;;;;;;;;;5054621;28;20405;-52
2023/07/16 08:37:13;;;;;;;5.80;4.33;;;;;;;;;;5054428;28;20397;-52
2023/07/16 08:39:39;;;;;;;5.60;4.13;;;;;;;;;;5054307;28;20957;-49
2023/07/16 08:42:05;;;;;;;11.30;4.90;;;;;;;;;;5054423;28;20405;-53
2023/07/16 08:44:31;;;;;;;6.90;4.40;;;;;;;;;;5054201;28;20472;-51
2023/07/16 08:46:57;;;;;;;7.20;4.73;;;;;;;;;;5054335;28;20405;-50
2023/07/16 08:49:24;;;;;;;8.43;4.33;;;;;;;;;;5054225;28;20432;-51
2023/07/16 08:51:50;;;;;;;7.10;4.03;;;;;;;;;;5054200;28;20403;-52
2023/07/16 08:54:17;;;;;;;10.27;4.37;;;;;;;;;;5054477;28;20828;-52
2023/07/16 08:56:44;;;;;;;10.23;4.70;;;;;;;;;;5054252;28;20421;-52
2023/07/16 08:59:10;;;;;;;4.77;4.13;;;;;;;;;;5048004;28;20442;-50
2023/07/16 09:01:37;;;;;;;4.67;3.23;;;;;;;;;;5053580;28;20412;-52
2023/07/16 09:04:03;;;;;;;5.13;4.00;;;;;;;;;;5054321;28;20570;-53
2023/07/16 09:06:29;;;;;;;5.63;4.27;;;;;;;;;;5053629;28;20505;-52
2023/07/16 09:08:55;;;;;;;7.13;4.50;;;;;;;;;;5056369;28;20512;-51
2023/07/16 09:11:22;;;;;;;5.77;3.80;;;;;;;;;;5053611;28;20505;-50
2023/07/16 09:13:48;;;;;;;6.73;4.40;;;;;;;;;;5052916;28;20411;-53
2023/07/16 09:16:16;;;;;;;6.83;4.30;;;;;;;;;;5052469;28;20441;-52
2023/07/16 09:18:42;;;;;;;7.63;3.60;;;;;;;;;;5053519;28;20487;-53
2023/07/16 09:21:09;;;;;;;7.67;4.13;;;;;;;;;;5052643;28;20512;-52
2023/07/16 09:23:36;;;;;;;6.40;4.40;;;;;;;;;;5053416;28;20414;-52
2023/07/16 09:26:03;;;;;;;4.90;3.33;;;;;;;;;;5053832;28;20488;-51
2023/07/16 09:28:30;;;;;;;9.43;5.27;;;;;;;;;;5053550;28;20516;-52
2023/07/16 09:30:56;;;;;;;8.53;3.80;;;;;;;;;;5053094;28;20911;-52
2023/07/16 09:33:25;;;;;;;8.97;3.73;;;;;;;;;;5051056;28;20402;-51
2023/07/16 09:35:52;;;;;;;5.43;4.27;;;;;;;;;;5053507;28;20605;-53
2023/07/16 09:38:18;;;;;;;8.13;4.07;;;;;;;;;;5053268;28;21000;-52
2023/07/16 09:40:44;;;;;;;5.13;4.30;;;;;;;;;;5053257;28;20417;-53
2023/07/16 09:43:11;;;;;;;7.70;3.83;;;;;;;;;;5053195;28;20773;-52
2023/07/16 09:45:37;;;;;;;6.00;3.63;;;;;;;;;;5036921;28;20473;-52
2023/07/16 09:48:03;;;;;;;4.20;3.23;;;;;;;;;;5060990;28;20441;-52
2023/07/16 09:50:30;;;;;;;9.20;3.20;;;;;;;;;;5052852;28;20478;-52
2023/07/16 09:52:57;;;;;;;4.23;3.83;;;;;;;;;;5053273;28;20443;-53
2023/07/16 09:55:23;;;;;;;8.33;4.80;;;;;;;;;;5062536;28;20479;-51
2023/07/16 09:57:49;;;;;;;4.50;3.70;;;;;;;;;;5053032;28;20401;-51
2023/07/16 10:00:16;;;;;;;5.07;3.33;;;;;;;;;;5052801;28;20402;-52
2023/07/16 10:02:42;;;;;;;4.80;4.30;;;;;;;;;;5052870;28;20453;-53
2023/07/16 10:05:12;;;;;;;6.50;4.10;;;;;;;;;;5052766;28;20961;-52
2023/07/16 10:07:39;;;;;;;7.73;4.00;;;;;;;;;;5052738;28;20429;-53
2023/07/16 10:10:08;;;;;;;6.90;3.40;;;;;;;;;;5052684;28;20463;-53
2023/07/16 10:12:34;;;;;;;7.63;3.60;;;;;;;;;;5052793;28;20474;-53
2023/07/16 10:15:04;;;;;;;4.43;3.43;;;;;;;;;;5052564;28;20908;-51
2023/07/16 10:17:30;;;;;;;10.13;3.57;;;;;;;;;;5052723;28;20401;-52
2023/07/16 10:19:58;;;;;;;11.37;4.37;;;;;;;;;;5052422;28;20426;-54
2023/07/16 10:22:34;;;;;;;4.37;3.97;;;;;;;;;;5052671;28;20419;-52
2023/07/16 10:25:00;;;;;;;9.50;3.80;;;;;;;;;;5052421;28;20551;-51
2023/07/16 10:27:33;;;;;;;5.30;3.47;;;;;;;;;;5052300;28;20405;-53
2023/07/16 10:30:04;;;;;;;3.60;3.30;;;;;;;;;;5052523;28;20883;-53
2023/07/16 10:32:30;;;;;;;6.13;3.50;;;;;;;;;;5052535;28;20418;-53
2023/07/16 10:34:57;;;;;;;7.57;3.53;;;;;;;;;;5052333;28;20406;-51
2023/07/16 10:37:23;;;;;;;5.40;3.10;;;;;;;;;;5052231;28;20421;-51
2023/07/16 10:39:50;;;;;;;4.70;3.37;;;;;;;;;;5051767;28;20567;-51
2023/07/16 10:42:17;;;;;;;5.53;3.57;;;;;;;;;;5052219;28;20401;-52
2023/07/16 10:44:43;;;;;;;8.27;3.47;;;;;;;;;;5051449;28;20461;-53
2023/07/16 10:47:10;;;;;;;7.07;3.67;;;;;;;;;;5052266;28;20867;-53
2023/07/16 10:49:36;;;;;;;9.63;4.33;;;;;;;;;;5052036;28;20519;-52
2023/07/16 10:52:02;;;;;;;5.20;3.53;;;;;;;;;;5052062;28;20576;-52
2023/07/16 10:54:28;;;;;;;4.43;2.83;;;;;;;;;;5051768;28;20528;-52
2023/07/16 10:56:54;;;;;;;8.80;4.23;;;;;;;;;;5052165;28;20840;-53
2023/07/16 10:59:20;;;;;;;13.93;3.87;;;;;;;;;;5051917;28;20433;-53
2023/07/16 11:01:46;;;;;;;4.07;3.00;;;;;;;;;;5051683;28;20426;-53
2023/07/16 11:04:12;;;;;;;9.93;4.00;;;;;;;;;;5051707;28;20560;-52
2023/07/16 11:06:38;;;;;;;15.00;4.47;;;;;;;;;;5051717;28;20942;-53
2023/07/16 11:09:07;;;;;;;10.83;4.40;;;;;;;;;;5051513;28;20961;-52
2023/07/16 11:11:33;;;;;;;3.50;3.20;;;;;;;;;;5051499;28;20409;-53
2023/07/16 11:13:59;;;;;;;16.20;4.10;;;;;;;;;;5052001;28;20964;-53
2023/07/16 11:16:25;;;;;;;11.23;3.40;;;;;;;;;;5051702;28;20416;-53
2023/07/16 11:18:52;;;;;;;11.87;3.93;;;;;;;;;;5052264;28;20478;-52
2023/07/16 11:21:20;;;;;;;4.50;3.20;;;;;;;;;;5051381;28;20412;-53
2023/07/16 11:23:46;;;;;;;14.73;4.30;;;;;;;;;;5051242;28;20840;-53
2023/07/16 11:26:12;;;;;;;6.43;3.53;;;;;;;;;;5051521;28;20419;-49
2023/07/16 11:28:39;;;;;;;7.73;4.33;;;;;;;;;;5051444;28;20918;-53
2023/07/16 11:31:17;;;;;;;9.77;3.30;;;;;;;;;;5051396;28;20416;-53
2023/07/16 11:33:46;;;;;;;6.77;3.20;;;;;;;;;;5051420;28;20439;-53
2023/07/16 11:36:13;;;;;;;5.20;3.00;;;;;;;;;;5051222;28;20426;-49
2023/07/16 11:38:39;;;;;;;9.77;3.30;;;;;;;;;;5049354;28;20490;-51
2023/07/16 11:41:05;;;;;;;6.80;3.30;;;;;;;;;;5051157;28;20409;-52
2023/07/16 11:43:35;;;;;;;25.93;5.90;;;;;;;;;;5051252;28;20427;-52
2023/07/16 11:46:01;;;;;;;7.30;3.47;;;;;;;;;;5051045;28;20420;-50
2023/07/16 11:48:27;;;;;;;4.70;2.90;;;;;;;;;;5050300;28;20423;-51
2023/07/16 11:50:53;;;;;;;3.10;2.77;;;;;;;;;;5050892;28;20458;-53
2023/07/16 11:53:19;;;;;;;8.53;3.90;;;;;;;;;;5051305;28;20420;-53
2023/07/16 11:55:45;;;;;;;6.87;3.43;;;;;;;;;;5052157;28;20462;-53
2023/07/16 11:58:11;;;;;;;3.20;2.73;;;;;;;;;;5055283;28;20439;-53
2023/07/16 12:00:37;;;;;;;7.60;3.50;;;;;;;;;;5055529;28;20412;-53
2023/07/16 12:03:03;;;;;;;5.00;3.87;;;;;;;;;;5055163;28;20502;-52
2023/07/16 12:05:29;;;;;;;5.07;3.40;;;;;;;;;;5055069;28;20468;-50
2023/07/16 12:07:55;;;;;;;10.73;3.60;;;;;;;;;;5055031;28;20419;-52
2023/07/16 12:10:21;;;;;;;5.17;3.43;;;;;;;;;;5054996;28;20439;-51
2023/07/16 12:12:47;;;;;;;4.57;3.33;;;;;;;;;;5055141;28;20404;-53
2023/07/16 12:15:13;;;;;;;3.93;3.63;;;;;;;;;;5054890;28;20417;-51
2023/07/16 12:17:39;;;;;;;4.07;3.63;;;;;;;;;;5054696;28;20411;-53
2023/07/16 12:20:05;;;;;;;4.77;3.53;;;;;;;;;;5054740;28;20418;-53
2023/07/16 12:22:31;;;;;;;6.63;3.30;;;;;;;;;;5054837;28;20425;-53
2023/07/16 12:24:57;;;;;;;8.50;3.80;;;;;;;;;;5054782;28;20467;-52
2023/07/16 12:27:23;;;;;;;4.40;3.57;;;;;;;;;;5054917;28;20910;-52
2023/07/16 12:29:49;;;;;;;5.60;3.47;;;;;;;;;;5054556;28;20966;-53
2023/07/16 12:32:15;;;;;;;5.43;3.80;;;;;;;;;;5054617;28;20418;-51
2023/07/16 12:34:41;;;;;;;8.60;4.10;;;;;;;;;;5054704;28;20441;-50
2023/07/16 12:37:07;;;;;;;76.80;8.40;;;;;;;;;;5054673;28;20404;-53
2023/07/16 12:39:33;;;;;;;7.33;3.77;;;;;;;;;;5054425;28;20477;-53
2023/07/16 12:41:59;;;;;;;4.87;3.53;;;;;;;;;;5054328;28;20768;-53
2023/07/16 12:44:25;;;;;;;5.40;3.77;;;;;;;;;;5054248;28;20515;-53
2023/07/16 12:46:51;;;;;;;4.73;3.27;;;;;;;;;;5054428;28;20459;-53
2023/07/16 12:49:17;;;;;;;5.10;3.53;;;;;;;;;;5054479;28;20999;-53
2023/07/16 12:51:43;;;;;;;6.27;3.60;;;;;;;;;;5054164;28;20905;-52
2023/07/16 12:54:09;;;;;;;15.43;5.60;;;;;;;;;;5054199;28;20775;-50
2023/07/16 12:56:35;;;;;;;7.63;3.00;;;;;;;;;;5053919;28;20416;-53
2023/07/16 12:59:01;;;;;;;5.37;3.90;;;;;;;;;;5054118;28;20475;-53
2023/07/16 13:01:27;;;;;;;3.60;3.20;;;;;;;;;;5053801;28;20419;-53
2023/07/16 13:03:53;;;;;;;15.90;4.20;;;;;;;;;;5053970;28;20562;-52
2023/07/16 13:06:19;;;;;;;6.57;3.60;;;;;;;;;;5054001;28;20412;-53
2023/07/16 13:08:44;;;;;;;7.77;3.47;;;;;;;;;;5053330;28;20428;-53
2023/07/16 13:11:11;;;;;;;6.23;3.70;;;;;;;;;;5053720;28;20416;-50
2023/07/16 13:13:37;;;;;;;8.67;3.40;;;;;;;;;;5054077;28;20800;-51
2023/07/16 13:16:03;;;;;;;4.60;3.47;;;;;;;;;;5053910;28;20524;-52
2023/07/16 13:18:29;;;;;;;3.30;2.90;;;;;;;;;;5053670;28;20989;-53
2023/07/16 13:20:55;;;;;;;5.70;3.60;;;;;;;;;;5053556;28;20407;-53
2023/07/16 13:23:21;;;;;;;11.70;4.00;;;;;;;;;;5053686;28;20397;-52
2023/07/16 13:25:51;;;;;;;5.83;3.27;;;;;;;;;;5053491;28;20464;-53
2023/07/16 13:28:16;;;;;;;3.20;2.83;;;;;;;;;;5053621;28;20854;-52
2023/07/16 13:30:42;;;;;;;6.67;4.00;;;;;;;;;;5053502;28;20488;-52
2023/07/16 13:33:08;;;;;;;7.30;3.67;;;;;;;;;;5053545;28;20899;-50
2023/07/16 13:35:34;;;;;;;5.73;5.20;;;;;;;;;;5053373;28;20405;-54
2023/07/16 13:38:01;;;;;;;5.33;3.50;;;;;;;;;;5053405;28;20433;-54
2023/07/16 13:40:27;;;;;;;5.10;3.00;;;;;;;;;;5053060;28;20501;-51
2023/07/16 13:42:53;;;;;;;3.60;3.30;;;;;;;;;;5053830;28;20485;-53
2023/07/16 13:45:19;;;;;;;4.70;2.97;;;;;;;;;;5055977;28;21033;-53
2023/07/16 13:47:45;;;;;;;6.80;3.67;;;;;;;;;;5053231;28;20416;-53
2023/07/16 13:50:11;;;;;;;4.80;3.60;;;;;;;;;;5053029;28;20413;-53
2023/07/16 13:52:37;;;;;;;5.23;3.90;;;;;;;;;;5044946;28;20416;-53
2023/07/16 13:55:04;;;;;;;6.23;3.33;;;;;;;;;;5053099;28;20412;-53
2023/07/16 13:57:30;;;;;;;4.83;3.47;;;;;;;;;;5053067;28;20418;-53
2023/07/16 13:59:56;;;;;;;4.47;3.33;;;;;;;;;;5052905;28;20444;-53
2023/07/16 14:02:22;;;;;;;6.57;3.43;;;;;;;;;;5052960;28;20903;-53
2023/07/16 14:04:48;;;;;;;3.50;3.20;;;;;;;;;;5052954;28;20526;-53
2023/07/16 14:07:14;;;;;;;7.80;3.50;;;;;;;;;;5052716;28;20904;-52
2023/07/16 14:09:40;;;;;;;91.87;8.30;;;;;;;;;;5052897;28;20472;-52
2023/07/16 14:12:06;;;;;;;7.90;3.30;;;;;;;;;;5052892;28;20433;-50
2023/07/16 14:14:32;;;;;;;5.70;3.20;;;;;;;;;;5052721;28;20500;-50
2023/07/16 14:16:58;;;;;;;5.10;3.70;;;;;;;;;;5052971;28;20592;-53
2023/07/16 14:19:24;;;;;;;7.33;3.17;;;;;;;;;;5051670;28;20420;-52
2023/07/16 14:21:50;;;;;;;32.43;6.03;;;;;;;;;;5052818;28;20417;-53
2023/07/16 14:24:16;;;;;;;3.40;3.10;;;;;;;;;;5052652;28;20495;-53
2023/07/16 14:26:42;;;;;;;4.93;3.40;;;;;;;;;;5052783;28;20551;-53
2023/07/16 14:29:08;;;;;;;8.83;3.47;;;;;;;;;;5052465;28;20429;-52
2023/07/16 14:31:34;;;;;;;10.30;4.37;;;;;;;;;;5052246;28;20831;-53
2023/07/16 14:34:00;;;;;;;4.77;3.63;;;;;;;;;;5052901;28;20470;-53
2023/07/16 14:36:27;;;;;;;14.13;5.57;;;;;;;;;;5052210;28;20412;-50